createdAt,value
2018-06-19T00:01:11.658Z,7.00
2018-06-19T00:03:42.152Z,7.80
2018-06-19T00:06:11.553Z,7.00
2018-06-19T00:08:41.124Z,6.90
2018-06-19T00:11:11.075Z,6.22
2018-06-19T00:13:40.892Z,6.97
2018-06-19T00:16:10.544Z,6.60
2018-06-19T00:18:47.325Z,6.78
2018-06-19T00:21:35.805Z,6.53
2018-06-19T00:24:05.404Z,6.80
2018-06-19T00:26:34.964Z,6.67
2018-06-19T00:29:04.257Z,6.78
2018-06-19T00:31:33.550Z,6.70
2018-06-19T00:34:02.778Z,7.08
2018-06-19T00:36:32.045Z,7.00
2018-06-19T00:39:01.682Z,6.50
2018-06-19T00:41:31.461Z,7.10
2018-06-19T00:44:00.667Z,6.47
2018-06-19T00:46:30.381Z,6.40
2018-06-19T00:48:59.607Z,5.45
2018-06-19T00:51:28.865Z,6.28
2018-06-19T00:53:58.094Z,6.70
2018-06-19T00:56:38.650Z,6.35
2018-06-19T00:59:07.919Z,6.53
2018-06-19T01:01:37.292Z,5.80
2018-06-19T01:04:06.990Z,6.03
2018-06-19T01:06:36.243Z,5.87
2018-06-19T01:09:07.438Z,6.00
2018-06-19T01:11:37.154Z,5.90
2018-06-19T01:14:06.511Z,5.80
2018-06-19T01:16:35.854Z,6.37
2018-06-19T01:19:05.206Z,6.22
2018-06-19T01:21:34.432Z,6.00
2018-06-19T01:24:03.949Z,6.35
2018-06-19T01:26:33.166Z,6.40
2018-06-19T01:29:02.398Z,6.53
2018-06-19T01:31:31.644Z,6.20
2018-06-19T01:34:00.847Z,6.62
2018-06-19T01:36:34.241Z,7.15
2018-06-19T01:39:04.229Z,6.20
2018-06-19T01:41:33.495Z,5.90
2018-06-19T01:44:03.370Z,5.62
2018-06-19T01:46:32.781Z,5.78
2018-06-19T01:49:02.575Z,7.23
2018-06-19T01:51:31.864Z,7.28
2018-06-19T01:54:07.817Z,6.80
2018-06-19T01:56:39.154Z,6.50
2018-06-19T01:59:12.445Z,6.85
2018-06-19T02:01:45.633Z,6.28
2018-06-19T02:04:18.437Z,5.97
2018-06-19T02:06:48.472Z,6.17
2018-06-19T02:09:18.390Z,6.90
2018-06-19T02:11:47.814Z,6.60
2018-06-19T02:14:21.298Z,6.33
2018-06-19T02:16:53.274Z,6.50
2018-06-19T02:19:28.282Z,6.20
2018-06-19T02:22:00.852Z,5.65
2018-06-19T02:24:33.365Z,5.70
2018-06-19T02:27:06.725Z,6.00
2018-06-19T02:29:40.877Z,6.70
2018-06-19T02:32:11.972Z,5.93
2018-06-19T02:34:44.470Z,6.10
2018-06-19T02:37:13.741Z,6.42
2018-06-19T02:39:42.934Z,6.28
2018-06-19T02:42:12.343Z,6.22
2018-06-19T02:44:44.717Z,6.42
2018-06-19T02:47:16.443Z,6.30
2018-06-19T02:49:47.392Z,6.20
2018-06-19T02:52:19.234Z,6.70
2018-06-19T02:54:51.089Z,6.80
2018-06-19T02:57:21.309Z,6.50
2018-06-19T02:59:51.656Z,6.47
2018-06-19T03:02:22.561Z,7.10
2018-06-19T03:04:54.286Z,6.58
2018-06-19T03:07:26.597Z,7.00
2018-06-19T03:09:56.144Z,6.90
2018-06-19T03:12:26.460Z,7.00
2018-06-19T03:14:55.729Z,7.40
2018-06-19T03:17:25.043Z,6.87
2018-06-19T03:19:54.851Z,6.37
2018-06-19T03:22:24.179Z,5.80
2018-06-19T03:24:53.765Z,6.33
2018-06-19T03:27:23.516Z,6.20
2018-06-19T03:29:52.700Z,6.92
2018-06-19T03:32:21.910Z,5.60
2018-06-19T03:34:51.096Z,5.70
2018-06-19T03:37:20.382Z,6.10
2018-06-19T03:39:49.631Z,5.40
2018-06-19T03:42:19.282Z,6.10
2018-06-19T03:44:48.539Z,5.80
2018-06-19T03:47:18.283Z,6.10
2018-06-19T03:49:47.515Z,7.10
2018-06-19T03:52:16.837Z,7.70
2018-06-19T03:54:45.917Z,6.90
2018-06-19T03:57:15.736Z,6.87
2018-06-19T03:59:45.285Z,6.50
2018-06-19T04:02:14.826Z,7.12
2018-06-19T04:04:44.399Z,6.50
2018-06-19T04:07:13.648Z,5.70
2018-06-19T04:09:42.979Z,6.20
2018-06-19T04:12:12.596Z,5.95
2018-06-19T04:14:41.809Z,6.00
2018-06-19T04:17:16.111Z,6.08
2018-06-19T04:19:45.949Z,5.28
2018-06-19T04:22:46.018Z,5.72
2018-06-19T04:25:15.585Z,5.70
2018-06-19T04:27:51.781Z,5.50
2018-06-19T04:30:21.002Z,5.30
2018-06-19T04:32:50.792Z,6.00
2018-06-19T04:35:19.961Z,5.62
2018-06-19T04:37:49.208Z,6.12
2018-06-19T04:40:18.741Z,6.20
2018-06-19T04:42:48.243Z,5.90
2018-06-19T04:45:19.687Z,6.30
2018-06-19T04:47:49.441Z,5.65
2018-06-19T04:50:18.960Z,6.17
2018-06-19T04:52:49.055Z,6.08
2018-06-19T04:55:18.757Z,6.37
2018-06-19T04:57:48.058Z,5.70
2018-06-19T05:00:17.332Z,5.53
2018-06-19T05:02:48.802Z,5.87
2018-06-19T05:05:17.777Z,5.87
2018-06-19T05:07:46.728Z,6.10
2018-06-19T05:10:16.142Z,6.15
2018-06-19T05:12:46.083Z,6.40
2018-06-19T05:15:15.625Z,5.73
2018-06-19T05:17:45.364Z,5.72
2018-06-19T05:20:16.685Z,5.87
2018-06-19T05:23:07.425Z,5.95
2018-06-19T05:25:36.670Z,6.40
2018-06-19T05:28:07.025Z,6.17
2018-06-19T05:30:45.684Z,7.30
2018-06-19T05:33:15.868Z,7.37
2018-06-19T05:35:54.828Z,6.70
2018-06-19T05:38:24.586Z,6.62
2018-06-19T05:40:53.928Z,6.50
2018-06-19T05:43:49.445Z,6.37
2018-06-19T05:46:19.756Z,6.30
2018-06-19T05:48:50.892Z,5.75
2018-06-19T05:51:27.735Z,6.00
2018-06-19T05:53:59.228Z,5.47
2018-06-19T05:56:30.894Z,6.08
2018-06-19T05:59:08.681Z,7.15
2018-06-19T06:01:38.528Z,6.22
2018-06-19T06:04:09.353Z,5.70
2018-06-19T06:06:38.864Z,5.70
2018-06-19T06:09:10.195Z,6.62
2018-06-19T06:11:39.503Z,6.17
2018-06-19T06:14:09.480Z,5.00
2018-06-19T06:16:38.838Z,4.80
2018-06-19T06:19:08.131Z,4.70
2018-06-19T06:21:37.994Z,4.90
2018-06-19T06:24:07.357Z,5.00
2018-06-19T06:26:37.071Z,5.03
2018-06-19T06:29:10.287Z,4.95
2018-06-19T06:31:40.373Z,4.50
2018-06-19T06:34:16.942Z,5.15
2018-06-19T06:36:48.099Z,5.45
2018-06-19T06:39:20.906Z,4.42
2018-06-19T06:46:38.190Z,4.00
2018-06-19T06:52:29.062Z,5.10
2018-06-19T06:54:58.795Z,4.50
2018-06-19T06:58:08.434Z,5.42
2018-06-19T07:00:38.954Z,4.30
2018-06-19T07:03:08.746Z,5.10
2018-06-19T07:05:38.330Z,5.30
2018-06-19T07:08:07.982Z,4.42
2018-06-19T07:10:37.647Z,4.83
2018-06-19T07:13:06.992Z,4.70
2018-06-19T07:15:36.813Z,4.40
2018-06-19T07:18:07.194Z,4.40
2018-06-19T07:20:36.450Z,3.70
2018-06-19T07:23:06.028Z,4.62
2018-06-19T07:25:37.688Z,4.22
2018-06-19T07:28:09.165Z,5.12
2018-06-19T07:30:38.706Z,5.20
2018-06-19T07:33:21.509Z,4.97
2018-06-19T07:36:04.980Z,5.53
2018-06-19T07:38:36.282Z,5.97
2018-06-19T07:41:16.837Z,6.15
2018-06-19T07:43:55.245Z,6.00
2018-06-19T07:46:32.019Z,5.50
2018-06-19T07:49:05.381Z,5.50
2018-06-19T07:51:35.008Z,5.70
2018-06-19T07:54:04.393Z,5.97
2018-06-19T07:56:34.331Z,6.90
2018-06-19T07:59:03.831Z,6.47
2018-06-19T08:01:33.141Z,6.87
2018-06-19T08:04:04.081Z,6.92
2018-06-19T08:08:20.340Z,6.50
2018-06-19T08:10:51.153Z,5.75
2018-06-19T08:13:20.508Z,6.50
2018-06-19T08:15:50.349Z,6.20
2018-06-19T08:18:22.446Z,6.78
2018-06-19T08:20:52.336Z,6.28
2018-06-19T08:23:23.616Z,6.20
2018-06-19T08:25:55.736Z,6.60
2018-06-19T08:28:26.039Z,6.50
2018-06-19T08:30:55.527Z,6.30
2018-06-19T08:33:25.240Z,6.58
2018-06-19T08:35:55.918Z,6.47
2018-06-19T08:38:39.130Z,6.42
2018-06-19T08:41:21.033Z,6.20
2018-06-19T08:43:55.127Z,6.45
2018-06-19T08:46:37.672Z,6.40
2018-06-19T08:49:14.382Z,6.70
2018-06-19T08:51:57.022Z,6.25
2018-06-19T08:54:39.353Z,6.40
2018-06-19T09:02:14.252Z,5.83
2018-06-19T09:04:44.225Z,6.20
2018-06-19T09:07:28.323Z,5.72
2018-06-19T09:10:00.380Z,5.10
2018-06-19T09:12:45.950Z,4.65
2018-06-19T09:15:25.559Z,5.30
2018-06-19T09:17:57.782Z,5.28
2018-06-19T09:20:28.169Z,4.97
2018-06-19T09:23:22.273Z,5.20
2018-06-19T09:25:55.291Z,5.20
2018-06-19T09:28:28.140Z,4.78
2018-06-19T09:31:11.688Z,5.35
2018-06-19T09:33:49.015Z,4.63
2018-06-19T09:36:23.439Z,5.10
2018-06-19T09:39:09.232Z,5.10
2018-06-19T09:41:43.605Z,5.30
2018-06-19T09:44:21.383Z,5.58
2018-06-19T09:46:52.077Z,5.70
2018-06-19T09:49:49.345Z,5.33
2018-06-19T09:52:23.103Z,5.20
2018-06-19T09:54:58.663Z,5.15
2018-06-19T09:57:31.611Z,5.23
2018-06-19T10:00:00.997Z,5.70
2018-06-19T10:02:32.239Z,5.20
2018-06-19T10:05:02.640Z,6.50
2018-06-19T10:07:31.998Z,5.70
2018-06-19T10:10:04.306Z,5.80
2018-06-19T10:12:35.345Z,5.37
2018-06-19T10:15:08.618Z,5.70
2018-06-19T10:17:40.973Z,5.55
2018-06-19T10:20:13.351Z,6.17
2018-06-19T10:22:44.635Z,4.97
2018-06-19T10:25:14.721Z,5.65
2018-06-19T10:27:44.567Z,5.92
2018-06-19T10:30:17.578Z,6.00
2018-06-19T10:32:52.776Z,5.80
2018-06-19T10:35:29.580Z,5.25
2018-06-19T10:37:58.923Z,6.15
2018-06-19T10:40:28.222Z,5.10
2018-06-19T10:42:58.073Z,5.50
2018-06-19T10:45:31.642Z,5.30
2018-06-19T10:48:07.465Z,5.53
2018-06-19T10:50:38.062Z,5.30
2018-06-19T10:53:13.061Z,4.92
2018-06-19T10:59:21.423Z,4.50
2018-06-19T11:02:05.838Z,4.73
2018-06-19T11:04:40.994Z,5.40
2018-06-19T11:11:11.640Z,4.97
2018-06-19T11:13:42.700Z,5.12
2018-06-19T11:16:23.621Z,4.50
2018-06-19T11:19:03.204Z,4.60
2018-06-19T11:21:32.941Z,4.53
2018-06-19T11:24:03.078Z,5.03
2018-06-19T11:26:37.196Z,4.85
2018-06-19T11:29:09.652Z,4.60
2018-06-19T11:31:42.920Z,4.33
2018-06-19T11:34:15.054Z,4.95
2018-06-19T11:36:44.481Z,4.70
2018-06-19T11:39:14.658Z,4.50
2018-06-19T11:41:45.616Z,4.22
2018-06-19T11:44:24.562Z,3.90
2018-06-19T11:46:55.674Z,4.50
2018-06-19T11:49:42.156Z,4.40
2018-06-19T11:52:13.736Z,4.20
2018-06-19T11:55:30.130Z,4.80
2018-06-19T11:58:00.621Z,4.50
2018-06-19T12:00:33.584Z,3.83
2018-06-19T12:03:05.143Z,4.00
2018-06-19T12:12:48.411Z,4.20
2018-06-19T12:15:20.115Z,4.10
2018-06-19T12:17:50.687Z,3.90
2018-06-19T12:20:47.585Z,3.70
2018-06-19T12:23:19.081Z,3.90
2018-06-19T12:25:48.414Z,3.83
2018-06-19T12:28:19.938Z,4.00
2018-06-19T12:30:50.749Z,3.90
2018-06-19T12:33:20.312Z,3.90
2018-06-19T12:35:50.673Z,3.53
2018-06-19T12:38:22.046Z,3.97
2018-06-19T12:40:53.588Z,3.52
2018-06-19T12:43:23.493Z,3.45
2018-06-19T12:45:54.957Z,3.87
2018-06-19T12:49:00.550Z,3.70
2018-06-19T12:51:51.804Z,3.70
2018-06-19T12:55:01.617Z,4.35
2018-06-19T12:57:51.949Z,4.25
2018-06-19T13:00:41.782Z,3.40
2018-06-19T13:03:24.279Z,3.70
2018-06-19T13:06:19.128Z,4.10
2018-06-19T13:13:22.784Z,3.70
2018-06-19T13:16:02.517Z,4.03
2018-06-19T13:18:58.183Z,4.05
2018-06-19T13:22:00.210Z,4.17
2018-06-19T13:24:32.319Z,4.00
2018-06-19T13:27:02.660Z,3.87
2018-06-19T13:29:49.667Z,3.67
2018-06-19T13:32:28.296Z,3.70
2018-06-19T13:34:59.801Z,4.10
2018-06-19T13:37:30.972Z,3.90
2018-06-19T13:41:13.146Z,4.30
2018-06-19T13:43:54.222Z,4.15
2018-06-19T13:46:27.035Z,3.95
2018-06-19T13:49:07.850Z,3.80
2018-06-19T13:51:53.344Z,4.05
2018-06-19T13:54:30.255Z,4.08
2018-06-19T14:00:43.541Z,4.30
2018-06-19T14:03:18.488Z,4.10
2018-06-19T14:05:52.372Z,4.00
2018-06-19T14:08:35.417Z,4.60
2018-06-19T14:11:28.162Z,4.20
2018-06-19T14:14:01.445Z,5.28
2018-06-19T14:16:45.050Z,4.75
2018-06-19T14:19:17.528Z,4.47
2018-06-19T14:21:47.032Z,5.10
2018-06-19T14:24:20.513Z,4.70
2018-06-19T14:26:49.935Z,4.40
2018-06-19T14:29:20.749Z,4.42
2018-06-19T14:31:54.008Z,4.72
2018-06-19T14:34:26.089Z,4.25
2018-06-19T14:36:56.478Z,3.92
2018-06-19T14:39:33.232Z,4.20
2018-06-19T14:42:03.827Z,4.30
2018-06-19T14:44:35.076Z,4.40
2018-06-19T14:47:05.061Z,4.10
2018-06-19T14:49:34.926Z,4.28
2018-06-19T14:52:03.949Z,3.90
2018-06-19T14:54:34.146Z,4.23
2018-06-19T14:57:07.769Z,4.20
2018-06-19T14:59:37.085Z,3.90
2018-06-19T15:02:06.727Z,4.10
2018-06-19T15:04:40.878Z,3.55
2018-06-19T15:07:19.194Z,4.30
2018-06-19T15:09:49.327Z,3.77
2018-06-19T15:12:19.612Z,3.83
2018-06-19T15:14:52.122Z,3.40
2018-06-19T15:17:22.119Z,3.73
2018-06-19T15:20:29.876Z,4.00
2018-06-19T15:22:59.774Z,3.98
2018-06-19T15:25:32.113Z,3.90
2018-06-19T15:28:01.789Z,4.30
2018-06-19T15:30:36.658Z,4.30
2018-06-19T15:33:08.857Z,4.10
2018-06-19T15:35:46.678Z,4.40
2018-06-19T15:38:32.510Z,4.47
2018-06-19T15:41:06.645Z,4.10
2018-06-19T15:43:36.519Z,4.20
2018-06-19T15:46:11.014Z,4.08
2018-06-19T15:48:41.850Z,4.00
2018-06-19T15:52:03.685Z,3.85
2018-06-19T15:54:34.991Z,4.00
2018-06-19T15:57:05.760Z,4.50
2018-06-19T15:59:47.798Z,3.70
2018-06-19T16:02:17.827Z,4.50
2018-06-19T16:04:47.545Z,4.20
2018-06-19T16:07:56.350Z,4.40
2018-06-19T16:10:31.836Z,4.50
2018-06-19T16:13:12.397Z,4.58
2018-06-19T16:15:43.436Z,4.37
2018-06-19T16:18:14.451Z,3.80
2018-06-19T16:20:45.286Z,4.42
2018-06-19T16:23:15.470Z,4.30
2018-06-19T16:25:53.588Z,4.42
2018-06-19T16:28:33.001Z,4.30
2018-06-19T16:31:07.400Z,4.00
2018-06-19T16:33:42.516Z,3.80
2018-06-19T16:40:18.985Z,3.80
2018-06-19T16:42:53.749Z,3.42
2018-06-19T16:45:23.868Z,3.45
2018-06-19T16:47:56.848Z,3.33
2018-06-19T16:50:35.903Z,3.45
2018-06-19T16:53:14.189Z,3.72
2018-06-19T16:55:47.858Z,4.28
2018-06-19T16:58:50.078Z,3.40
2018-06-19T17:01:20.119Z,3.70
2018-06-19T17:03:51.490Z,3.10
2018-06-19T17:10:00.800Z,3.17
2018-06-19T17:12:32.954Z,3.45
2018-06-19T17:15:07.461Z,3.40
2018-06-19T17:17:37.965Z,3.70
2018-06-19T17:20:09.650Z,3.42
2018-06-19T17:23:04.389Z,3.65
2018-06-19T17:25:52.316Z,3.10
2018-06-19T17:28:23.835Z,3.65
2018-06-19T17:30:55.303Z,3.50
2018-06-19T17:33:24.901Z,3.47
2018-06-19T17:35:54.937Z,2.95
2018-06-19T17:38:34.517Z,3.20
2018-06-19T17:41:05.990Z,3.37
2018-06-19T17:43:40.082Z,2.80
2018-06-19T17:46:09.672Z,3.20
2018-06-19T17:48:42.479Z,3.13
2018-06-19T17:51:16.102Z,3.05
2018-06-19T17:53:47.456Z,3.70
2018-06-19T17:59:36.962Z,3.47
2018-06-19T18:02:07.311Z,3.45
2018-06-19T18:04:39.284Z,3.62
2018-06-19T18:07:08.529Z,3.50
2018-06-19T18:12:52.057Z,3.62
2018-06-19T18:15:21.558Z,3.42
2018-06-19T18:18:12.996Z,2.87
2018-06-19T18:20:42.683Z,3.25
2018-06-19T18:23:11.970Z,3.27
2018-06-19T18:25:41.319Z,3.40
2018-06-19T18:28:12.770Z,3.50
2018-06-19T18:31:06.603Z,3.42
2018-06-19T18:33:38.862Z,3.40
2018-06-19T18:36:08.226Z,3.53
2018-06-19T18:38:37.941Z,3.42
2018-06-19T18:41:07.871Z,3.37
2018-06-19T18:43:37.082Z,4.22
2018-06-19T18:46:34.137Z,4.47
2018-06-19T18:49:03.352Z,4.10
2018-06-19T18:51:32.544Z,4.20
2018-06-19T18:54:02.252Z,4.30
2018-06-19T18:56:31.499Z,4.40
2018-06-19T18:59:04.086Z,4.30
2018-06-19T19:01:38.918Z,4.37
2018-06-19T19:04:09.031Z,4.40
2018-06-19T19:06:38.690Z,4.10
2018-06-19T19:09:10.323Z,4.10
2018-06-19T19:11:39.775Z,4.08
2018-06-19T19:14:09.486Z,4.15
2018-06-19T19:16:44.267Z,4.40
2018-06-19T19:19:17.871Z,4.00
2018-06-19T19:21:47.484Z,4.55
2018-06-19T19:24:17.016Z,4.37
2018-06-19T19:26:52.238Z,5.00
2018-06-19T19:29:57.280Z,4.70
2018-06-19T19:32:27.414Z,4.17
2018-06-19T19:34:56.412Z,4.08
2018-06-19T19:37:33.683Z,5.20
2018-06-19T19:40:03.089Z,4.62
2018-06-19T19:42:32.399Z,5.12
2018-06-19T19:45:01.648Z,4.90
2018-06-19T19:47:40.172Z,4.87
2018-06-19T19:50:09.444Z,5.00
2018-06-19T19:52:51.866Z,4.20
2018-06-19T19:55:21.513Z,4.90
2018-06-19T19:57:57.407Z,4.65
2018-06-19T20:00:37.333Z,4.87
2018-06-19T20:03:09.330Z,4.80
2018-06-19T20:05:39.076Z,5.22
2018-06-19T20:08:08.523Z,4.70
2018-06-19T20:10:38.201Z,4.78
2018-06-19T20:13:07.461Z,4.80
2018-06-19T20:15:36.665Z,4.42
2018-06-19T20:18:06.120Z,4.50
2018-06-19T20:20:35.938Z,5.10
2018-06-19T20:23:05.578Z,5.60
2018-06-19T20:25:35.435Z,6.03
2018-06-19T20:28:05.547Z,6.60
2018-06-19T20:30:36.894Z,5.97
2018-06-19T20:33:12.646Z,6.30
2018-06-19T20:35:42.245Z,6.28
2018-06-19T20:38:12.075Z,5.93
2018-06-19T20:40:41.725Z,6.05
2018-06-19T20:43:11.526Z,5.47
2018-06-19T20:45:40.893Z,5.80
2018-06-19T20:48:10.512Z,4.85
2018-06-19T20:50:40.161Z,5.45
2018-06-19T20:53:09.439Z,5.70
2018-06-19T20:55:39.153Z,4.53
2018-06-19T20:58:08.435Z,5.08
2018-06-19T21:00:37.731Z,5.70
2018-06-19T21:03:08.299Z,5.87
2018-06-19T21:05:37.846Z,6.25
2018-06-19T21:14:53.766Z,4.78
2018-06-19T21:17:23.398Z,6.08
2018-06-19T21:19:52.740Z,5.37
2018-06-19T21:22:21.973Z,5.60
2018-06-19T21:24:51.649Z,5.03
2018-06-19T21:27:20.878Z,6.08
2018-06-19T21:29:50.340Z,5.60
2018-06-19T21:32:19.982Z,5.10
2018-06-19T21:34:49.228Z,4.80
2018-06-19T21:37:18.667Z,5.30
2018-06-19T21:39:48.609Z,6.00
2018-06-19T21:42:18.185Z,4.85
2018-06-19T21:44:47.426Z,5.42
2018-06-19T21:47:17.049Z,5.60
2018-06-19T21:49:46.450Z,6.12
2018-06-19T21:52:15.693Z,5.67
2018-06-19T21:54:45.285Z,5.35
2018-06-19T21:57:14.517Z,5.70
2018-06-19T21:59:43.738Z,5.43
2018-06-19T22:02:18.033Z,5.00
2018-06-19T22:04:47.286Z,4.80
2018-06-19T22:07:16.569Z,4.80
2018-06-19T22:09:46.613Z,5.10
2018-06-19T22:12:15.830Z,4.90
2018-06-19T22:14:45.445Z,5.50
2018-06-19T22:17:15.593Z,5.10
2018-06-19T22:19:44.869Z,5.08
2018-06-19T22:22:14.091Z,5.00
2018-06-19T22:24:43.670Z,5.25
2018-06-19T22:27:12.869Z,5.30
2018-06-19T22:29:42.102Z,6.20
2018-06-19T22:32:11.752Z,6.00
2018-06-19T22:34:41.285Z,6.33
2018-06-19T22:37:10.490Z,4.83
2018-06-19T22:39:40.431Z,4.80
2018-06-19T22:42:10.527Z,4.60
2018-06-19T22:44:39.733Z,4.53
2018-06-19T22:47:09.482Z,4.60
2018-06-19T22:49:38.773Z,4.40
2018-06-19T22:52:08.152Z,5.00
2018-06-19T22:54:37.763Z,6.77
2018-06-19T22:57:07.007Z,5.90
2018-06-19T22:59:36.292Z,4.75
2018-06-19T23:02:05.651Z,5.40
2018-06-19T23:04:34.753Z,5.03
2018-06-19T23:07:04.068Z,5.37
2018-06-19T23:09:34.139Z,5.00
2018-06-19T23:12:03.705Z,4.70
2018-06-19T23:14:32.914Z,5.20
2018-06-19T23:17:02.912Z,4.92
2018-06-19T23:19:32.097Z,5.25
2018-06-19T23:22:01.368Z,4.83
2018-06-19T23:24:30.977Z,4.92
2018-06-19T23:27:00.451Z,5.30
2018-06-19T23:29:29.496Z,5.05
2018-06-19T23:31:59.219Z,5.15
2018-06-19T23:34:28.567Z,5.60
2018-06-19T23:36:57.538Z,5.15
2018-06-19T23:39:26.996Z,5.30
2018-06-19T23:41:56.330Z,5.20
2018-06-19T23:44:25.518Z,5.37
2018-06-19T23:46:55.502Z,4.90
2018-06-19T23:49:24.743Z,5.97
2018-06-19T23:51:54.006Z,6.47
2018-06-19T23:54:23.678Z,6.87
2018-06-19T23:56:52.906Z,6.28
2018-06-19T23:59:22.182Z,6.00
